Time;durP1;ratioP1;P1;durP2;ratioP2;P2;SDS_P1;SDS_P2;PMS_P1;PMS_P2;Temp;Humidity;BMP_temperature;BMP_pressure;BME280_temperature;BME280_humidity;BME280_pressure;Samples;Min_cycle;Max_cycle;Signal;HPM_P1;HPM_P2
2023/02/23 00:02:00;;;;;;;;;;;;;;;21.56;20.52;98241.72;5050546;28;19921;-84
2023/02/23 00:04:26;;;;;;;;;;;;;;;21.86;20.37;98241.84;5037142;28;19921;-84
2023/02/23 00:06:52;;;;;;;;;;;;;;;21.90;20.11;98250.97;5044473;28;19935;-84
2023/02/23 00:09:24;;;;;;;;;;;;;;;21.79;19.95;98241.88;5054572;28;19932;-84
2023/02/23 00:11:54;;;;;;;;;;;;;;;21.79;19.71;98237.09;5054536;28;19917;-84
2023/02/23 00:14:23;;;;;;;;;;;;;;;21.67;19.83;98237.59;5048803;28;19921;-84
2023/02/23 00:16:49;;;;;;;;;;;;;;;21.50;20.17;98237.75;5052126;28;20301;-84
2023/02/23 00:19:16;;;;;;;;;;;;;;;21.48;20.40;98235.38;5039046;28;19917;-84
2023/02/23 00:21:42;;;;;;;;;;;;;;;21.58;20.25;98239.28;5050251;28;19990;-84
2023/02/23 00:24:10;;;;;;;;;;;;;;;21.54;19.95;98233.72;5048658;28;19979;-84
2023/02/23 00:26:37;;;;;;;;;;;;;;;21.15;20.31;98234.06;5052164;28;19948;-84
2023/02/23 00:29:05;;;;;;;;;;;;;;;21.00;20.66;98238.16;5042078;28;20012;-84
2023/02/23 00:31:31;;;;;;;;;;;;;;;21.08;20.46;98239.69;5050473;28;19960;-84
2023/02/23 00:33:58;;;;;;;;;;;;;;;21.12;20.53;98243.25;5043883;28;19925;-84
2023/02/23 00:36:26;;;;;;;;;;;;;;;21.05;20.56;98232.13;5048519;28;20069;-85
2023/02/23 00:38:57;;;;;;;;;;;;;;;20.38;21.06;98243.66;5049700;28;19925;-85
2023/02/23 00:41:29;;;;;;;;;;;;;;;20.30;21.13;98239.34;5049445;28;19921;-84
2023/02/23 00:43:56;;;;;;;;;;;;;;;20.38;21.12;98246.47;5052513;28;19967;-84
2023/02/23 00:46:22;;;;;;;;;;;;;;;20.08;21.62;98235.00;5041448;28;20393;-84
2023/02/23 00:48:49;;;;;;;;;;;;;;;20.28;21.11;98236.13;5035058;28;20309;-84
2023/02/23 00:51:16;;;;;;;;;;;;;;;20.57;20.85;98240.38;5049230;28;19928;-84
2023/02/23 00:53:43;;;;;;;;;;;;;;;20.86;20.51;98235.44;5042532;28;20027;-84
2023/02/23 00:56:10;;;;;;;;;;;;;;;20.86;20.35;98240.22;5041696;28;19921;-84
2023/02/23 00:58:37;;;;;;;;;;;;;;;20.88;20.18;98233.03;5049053;28;20298;-84
2023/02/23 01:01:07;;;;;;;;;;;;;;;20.85;20.59;98235.84;5048690;28;19921;-84
2023/02/23 01:03:33;;;;;;;;;;;;;;;20.73;20.79;98236.31;5052808;28;19924;-84
2023/02/23 01:06:03;;;;;;;;;;;;;;;20.46;20.70;98239.66;5037652;28;19928;-84
2023/02/23 01:08:29;;;;;;;;;;;;;;;20.72;20.70;98235.53;5043486;28;19924;-84
2023/02/23 01:10:55;;;;;;;;;;;;;;;21.16;20.26;98234.84;5035970;28;19927;-84
2023/02/23 01:13:23;;;;;;;;;;;;;;;21.37;19.80;98231.91;5044902;28;19920;-84
2023/02/23 01:15:49;;;;;;;;;;;;;;;21.27;20.10;98233.56;5048816;28;19967;-84
2023/02/23 01:18:16;;;;;;;;;;;;;;;21.53;20.03;98234.94;5052865;28;20267;-84
2023/02/23 01:20:43;;;;;;;;;;;;;;;21.67;19.48;98236.81;5049748;28;19929;-84
2023/02/23 01:23:11;;;;;;;;;;;;;;;21.74;19.58;98229.16;5051515;28;19920;-84
2023/02/23 01:25:38;;;;;;;;;;;;;;;21.56;19.40;98224.94;5046971;28;19960;-85
2023/02/23 01:28:04;;;;;;;;;;;;;;;21.25;19.76;98227.59;5040196;28;19921;-85
2023/02/23 01:30:30;;;;;;;;;;;;;;;20.79;20.71;98223.53;5045883;28;20078;-85
2023/02/23 01:32:56;;;;;;;;;;;;;;;19.84;21.56;98221.91;5048747;28;19932;-85
2023/02/23 01:35:22;;;;;;;;;;;;;;;19.78;21.60;98221.56;5052346;28;19960;-85
2023/02/23 01:37:48;;;;;;;;;;;;;;;19.87;21.75;98210.78;5053922;28;19940;-85
2023/02/23 01:40:28;;;;;;;;;;;;;;;20.31;21.43;98212.22;5041803;28;20480;-85
2023/02/23 01:42:57;;;;;;;;;;;;;;;20.56;20.94;98210.91;5047772;28;20298;-84
2023/02/23 01:45:26;;;;;;;;;;;;;;;20.99;20.35;98213.41;5044007;28;19921;-85
2023/02/23 01:47:54;;;;;;;;;;;;;;;21.36;19.53;98207.94;5049700;28;20336;-84
2023/02/23 01:50:21;;;;;;;;;;;;;;;21.49;20.21;98208.25;5040757;28;19921;-85
2023/02/23 01:52:49;;;;;;;;;;;;;;;21.49;19.77;98213.84;5045298;28;20374;-85
2023/02/23 01:55:22;;;;;;;;;;;;;;;21.46;19.83;98197.88;5048344;28;19948;-85
2023/02/23 01:57:52;;;;;;;;;;;;;;;19.97;21.24;98204.38;5044555;28;19929;-86
2023/02/23 02:00:19;;;;;;;;;;;;;;;18.87;22.64;98207.66;5039115;28;20337;-85
2023/02/23 02:02:47;;;;;;;;;;;;;;;19.24;22.29;98194.16;5043829;28;20293;-86
2023/02/23 02:05:14;;;;;;;;;;;;;;;19.85;21.80;98193.69;5048271;28;20385;-85
2023/02/23 02:07:49;;;;;;;;;;;;;;;20.19;21.23;98191.13;5048913;28;19924;-85
2023/02/23 02:12:45;;;;;;;;;;;;;;;20.61;21.08;98198.50;5049975;28;19921;-85
2023/02/23 02:15:18;;;;;;;;;;;;;;;20.87;20.56;98191.56;5045655;28;19924;-85
2023/02/23 02:17:44;;;;;;;;;;;;;;;21.04;20.55;98188.69;5044511;28;19975;-85
2023/02/23 02:20:31;;;;;;;;;;;;;;;21.26;20.01;98194.91;5037648;28;19936;-86
2023/02/23 02:23:11;;;;;;;;;;;;;;;20.29;21.21;98193.13;5044554;28;19924;-85
2023/02/23 02:25:43;;;;;;;;;;;;;;;20.48;20.95;98189.03;5051609;28;19966;-86
2023/02/23 02:28:12;;;;;;;;;;;;;;;20.60;20.69;98186.59;5050974;28;19928;-85
2023/02/23 02:31:02;;;;;;;;;;;;;;;20.72;20.50;98185.31;5044296;28;19925;-85
2023/02/23 02:33:30;;;;;;;;;;;;;;;20.91;20.26;98178.41;5047860;28;19921;-85
2023/02/23 02:36:03;;;;;;;;;;;;;;;21.20;20.27;98180.56;5051009;28;19943;-85
2023/02/23 02:38:52;;;;;;;;;;;;;;;21.39;19.65;98184.78;5045939;28;19971;-85
2023/02/23 02:41:34;;;;;;;;;;;;;;;21.10;19.99;98181.44;5045066;28;19952;-85
2023/02/23 02:44:26;;;;;;;;;;;;;;;20.44;20.53;98172.31;5049667;28;19920;-85
2023/02/23 02:46:56;;;;;;;;;;;;;;;19.87;21.57;98176.53;5033101;28;20079;-85
2023/02/23 02:49:31;;;;;;;;;;;;;;;20.14;20.86;98168.47;5041470;28;19928;-85
2023/02/23 02:52:04;;;;;;;;;;;;;;;20.29;21.03;98170.81;5046064;28;19924;-85
2023/02/23 02:54:36;;;;;;;;;;;;;;;20.39;20.86;98169.19;5052500;28;19928;-85
2023/02/23 02:57:03;;;;;;;;;;;;;;;20.64;20.90;98164.22;5040156;28;19933;-85
2023/02/23 04:18:58;;;;;;;;;;;;;;;20.92;19.95;98174.38;5035553;28;19929;-84
2023/02/23 04:21:24;;;;;;;;;;;;;;;20.74;20.23;98159.78;5045940;28;19921;-84
2023/02/23 04:23:51;;;;;;;;;;;;;;;20.81;20.28;98165.31;5044332;28;19920;-85
2023/02/23 04:26:17;;;;;;;;;;;;;;;21.11;19.76;98166.28;5049167;28;19921;-84
2023/02/23 04:28:43;;;;;;;;;;;;;;;20.84;19.83;98158.91;5053788;28;20332;-85
2023/02/23 04:31:09;;;;;;;;;;;;;;;20.56;20.26;98155.09;5052907;28;19920;-86
2023/02/23 04:33:35;;;;;;;;;;;;;;;19.82;21.12;98152.69;5043366;28;19922;-85
2023/02/23 04:36:01;;;;;;;;;;;;;;;19.00;21.72;98153.19;5045865;28;20306;-86
2023/02/23 04:38:27;;;;;;;;;;;;;;;19.25;21.47;98152.00;5051500;28;19925;-85
2023/02/23 04:40:53;;;;;;;;;;;;;;;19.82;21.13;98147.09;5047462;28;19933;-86
2023/02/23 04:43:19;;;;;;;;;;;;;;;20.39;20.11;98152.44;5045129;28;19925;-86
2023/02/23 04:45:45;;;;;;;;;;;;;;;19.67;21.31;98153.94;5051400;28;20011;-86
2023/02/23 04:48:11;;;;;;;;;;;;;;;18.27;22.93;98152.72;5048003;28;19920;-86
2023/02/23 04:50:38;;;;;;;;;;;;;;;18.16;22.89;98153.84;5050372;28;19921;-85
2023/02/23 04:53:04;;;;;;;;;;;;;;;18.45;22.57;98150.81;5054138;28;19927;-85
2023/02/23 04:55:31;;;;;;;;;;;;;;;19.07;21.98;98153.19;5052782;28;19948;-85
2023/02/23 04:57:58;;;;;;;;;;;;;;;19.64;21.13;98146.38;5046358;28;19967;-85
2023/02/23 05:00:25;;;;;;;;;;;;;;;19.83;20.96;98147.91;5047376;28;19968;-84
2023/02/23 05:02:51;;;;;;;;;;;;;;;19.70;21.29;98141.16;5050597;28;19971;-85
2023/02/23 05:05:17;;;;;;;;;;;;;;;19.76;21.19;98139.56;5050061;28;19921;-85
2023/02/23 05:07:43;;;;;;;;;;;;;;;20.16;20.43;98144.59;5043005;28;19935;-85
2023/02/23 05:10:10;;;;;;;;;;;;;;;19.85;20.75;98142.72;5045887;28;19967;-85
2023/02/23 05:12:36;;;;;;;;;;;;;;;20.24;20.68;98136.97;5051791;28;19975;-88
2023/02/23 05:15:02;;;;;;;;;;;;;;;20.64;20.12;98139.13;5049687;28;20313;-88
2023/02/23 05:17:28;;;;;;;;;;;;;;;20.81;20.02;98143.00;5051771;28;20309;-90
2023/02/23 05:19:55;;;;;;;;;;;;;;;19.93;20.52;98141.47;5043857;28;20355;-88
2023/02/23 05:22:21;;;;;;;;;;;;;;;19.35;21.43;98146.84;5048946;28;20281;-84
2023/02/23 05:24:47;;;;;;;;;;;;;;;18.75;21.87;98139.31;5053578;28;19921;-86
2023/02/23 05:27:14;;;;;;;;;;;;;;;18.70;21.95;98139.69;5052544;28;19928;-86
2023/02/23 05:29:40;;;;;;;;;;;;;;;18.24;22.53;98149.91;5042440;28;19917;-86
2023/02/23 05:32:06;;;;;;;;;;;;;;;18.96;21.77;98142.09;5048622;28;19935;-86
2023/02/23 05:34:32;;;;;;;;;;;;;;;18.32;22.60;98155.09;5048421;28;19991;-86
2023/02/23 05:36:58;;;;;;;;;;;;;;;18.09;23.09;98153.84;5048522;28;20313;-86
2023/02/23 05:39:24;;;;;;;;;;;;;;;18.30;22.47;98149.13;5040917;28;20294;-87
2023/02/23 05:41:51;;;;;;;;;;;;;;;18.40;22.41;98153.94;5045353;28;20387;-88
2023/02/23 05:44:17;;;;;;;;;;;;;;;18.06;22.99;98149.88;5044610;28;19963;-89
2023/02/23 05:46:44;;;;;;;;;;;;;;;17.73;23.58;98152.91;5047328;28;19959;-87
2023/02/23 05:49:10;;;;;;;;;;;;;;;17.47;23.49;98165.03;5065499;28;20410;-89
2023/02/23 05:51:38;;;;;;;;;;;;;;;16.25;25.52;98157.25;5055888;28;19940;-91
2023/02/23 05:54:04;;;;;;;;;;;;;;;17.08;24.40;98164.75;5044805;28;19975;-90
2023/02/23 05:56:30;;;;;;;;;;;;;;;17.69;23.89;98149.34;5046100;28;19990;-89
2023/02/23 05:58:57;;;;;;;;;;;;;;;17.45;24.21;98161.88;5052121;28;20013;-94
2023/02/23 06:01:24;;;;;;;;;;;;;;;17.80;23.45;98158.50;5037018;28;19921;-81
2023/02/23 06:03:50;;;;;;;;;;;;;;;18.13;23.18;98163.00;5038034;28;19921;-84
2023/02/23 06:06:17;;;;;;;;;;;;;;;18.77;22.68;98153.59;5049371;28;19925;-86
2023/02/23 06:08:43;;;;;;;;;;;;;;;19.42;21.69;98155.97;5053815;28;19920;-86
2023/02/23 06:11:09;;;;;;;;;;;;;;;19.93;21.24;98158.19;5053371;28;19920;-86
2023/02/23 06:13:35;;;;;;;;;;;;;;;19.78;21.62;98159.47;5052197;28;20357;-86
2023/02/23 06:16:02;;;;;;;;;;;;;;;19.86;21.57;98161.03;5044088;28;20401;-86
2023/02/23 06:18:28;;;;;;;;;;;;;;;19.97;21.43;98162.59;5054046;28;19917;-86
2023/02/23 06:20:55;;;;;;;;;;;;;;;19.87;21.54;98168.19;5052131;28;19917;-86
2023/02/23 06:23:21;;;;;;;;;;;;;;;19.88;21.54;98164.97;5033919;28;20009;-86
2023/02/23 06:25:47;;;;;;;;;;;;;;;20.17;21.32;98164.88;5040301;28;19921;-86
2023/02/23 06:28:14;;;;;;;;;;;;;;;20.42;20.84;98165.59;5042299;28;20385;-86
2023/02/23 06:30:40;;;;;;;;;;;;;;;20.41;21.10;98167.56;5054021;28;19917;-86
2023/02/23 06:33:06;;;;;;;;;;;;;;;19.64;22.05;98171.44;5039949;28;19921;-86
2023/02/23 06:35:33;;;;;;;;;;;;;;;20.14;21.76;98172.03;5053753;28;19917;-86
2023/02/23 06:37:59;;;;;;;;;;;;;;;20.63;21.36;98171.03;5051604;28;19929;-86
2023/02/23 06:40:26;;;;;;;;;;;;;;;20.87;21.06;98172.03;5033957;28;20012;-86
2023/02/23 06:42:52;;;;;;;;;;;;;;;20.98;20.93;98164.38;5048743;28;19927;-86
2023/02/23 06:45:18;;;;;;;;;;;;;;;20.93;20.95;98170.41;5052649;28;19928;-86
2023/02/23 06:47:44;;;;;;;;;;;;;;;20.41;21.53;98170.34;5052081;28;20336;-86
2023/02/23 06:50:10;;;;;;;;;;;;;;;20.16;22.04;98161.31;5052433;28;19928;-86
2023/02/23 06:52:36;;;;;;;;;;;;;;;20.32;21.80;98170.00;5053792;28;19917;-86
2023/02/23 06:55:03;;;;;;;;;;;;;;;20.21;22.11;98168.44;5051031;28;19923;-86
2023/02/23 06:57:29;;;;;;;;;;;;;;;20.32;22.11;98172.81;5050354;28;19921;-86
2023/02/23 06:59:55;;;;;;;;;;;;;;;20.11;22.49;98167.31;5044744;28;19917;-86
2023/02/23 07:02:21;;;;;;;;;;;;;;;20.10;22.75;98174.06;5053304;28;19924;-86
2023/02/23 07:04:47;;;;;;;;;;;;;;;20.36;22.25;98170.78;5053724;28;19924;-86
2023/02/23 07:07:13;;;;;;;;;;;;;;;20.09;22.81;98168.91;5053386;28;20460;-86
2023/02/23 07:09:41;;;;;;;;;;;;;;;20.70;22.23;98176.53;5052244;28;19975;-86
2023/02/23 07:12:08;;;;;;;;;;;;;;;20.24;22.56;98168.44;5044041;28;19939;-86
2023/02/23 07:14:34;;;;;;;;;;;;;;;20.73;22.14;98172.94;5034790;28;19928;-86
2023/02/23 07:17:00;;;;;;;;;;;;;;;20.90;22.04;98174.00;5053399;28;19923;-86
2023/02/23 07:19:27;;;;;;;;;;;;;;;21.31;21.66;98174.88;5053379;28;19916;-86
2023/02/23 07:21:53;;;;;;;;;;;;;;;21.64;21.39;98181.72;5053527;28;20297;-86
2023/02/23 07:24:19;;;;;;;;;;;;;;;21.83;21.26;98181.13;5052413;28;19982;-86
2023/02/23 07:26:46;;;;;;;;;;;;;;;21.90;21.28;98179.09;5048237;28;19920;-86
2023/02/23 07:29:12;;;;;;;;;;;;;;;21.77;21.38;98180.03;5049498;28;19921;-86
2023/02/23 07:31:39;;;;;;;;;;;;;;;21.84;21.49;98182.75;5033129;28;19917;-86
2023/02/23 07:34:05;;;;;;;;;;;;;;;21.70;21.29;98185.69;5033618;28;19917;-86
2023/02/23 07:36:31;;;;;;;;;;;;;;;21.47;21.73;98174.34;5032162;28;19921;-87
2023/02/23 07:38:58;;;;;;;;;;;;;;;20.19;23.36;98177.19;5042185;28;20038;-87
2023/02/23 07:41:24;;;;;;;;;;;;;;;20.21;23.61;98174.78;5050732;28;19916;-87
2023/02/23 07:43:50;;;;;;;;;;;;;;;20.62;22.97;98167.44;5053194;28;20263;-87
2023/02/23 07:46:16;;;;;;;;;;;;;;;19.43;24.65;98171.50;5048848;28;19924;-87
2023/02/23 07:48:43;;;;;;;;;;;;;;;16.73;28.02;98185.88;5032689;28;19921;-87
2023/02/23 07:51:11;;;;;;;;;;;;;;;18.28;26.47;98170.97;5033332;28;19917;-87
2023/02/23 07:53:38;;;;;;;;;;;;;;;18.51;25.89;98165.88;5045074;28;19928;-87
2023/02/23 07:56:04;;;;;;;;;;;;;;;18.32;25.92;98166.22;5053133;28;19965;-87
2023/02/23 07:58:30;;;;;;;;;;;;;;;20.11;25.15;98170.09;5056918;28;19924;-87
2023/02/23 08:00:56;;;;;;;;;;;;;;;20.17;24.03;98170.44;5056704;28;20325;-87
2023/02/23 08:03:22;;;;;;;;;;;;;;;20.27;23.71;98172.41;5051536;28;19963;-86
2023/02/23 08:05:48;;;;;;;;;;;;;;;20.54;23.92;98167.88;5036591;28;19971;-87
2023/02/23 08:08:14;;;;;;;;;;;;;;;20.60;23.42;98167.06;5052924;28;19925;-87
2023/02/23 08:10:41;;;;;;;;;;;;;;;21.34;23.27;98172.06;5054738;28;20370;-86
2023/02/23 08:13:07;;;;;;;;;;;;;;;19.04;26.00;98174.28;5038253;28;19917;-86
2023/02/23 08:15:33;;;;;;;;;;;;;;;19.25;26.06;98170.69;5056356;28;20468;-86
2023/02/23 08:17:59;;;;;;;;;;;;;;;18.96;26.41;98174.69;5056758;28;19917;-87
2023/02/23 08:20:26;;;;;;;;;;;;;;;19.76;25.38;98173.00;5052626;28;19921;-86
2023/02/23 08:22:56;;;;;;;;;;;;;;;20.43;24.88;98170.75;5056485;28;19943;-86
2023/02/23 08:25:23;;;;;;;;;;;;;;;20.77;24.95;98170.91;5056420;28;19944;-86
2023/02/23 08:27:52;;;;;;;;;;;;;;;21.30;23.98;98176.91;5046820;28;19939;-86
2023/02/23 08:30:20;;;;;;;;;;;;;;;22.43;23.26;98158.81;5034964;28;20370;-86
2023/02/23 08:32:46;;;;;;;;;;;;;;;22.92;22.65;98159.34;5035672;28;20366;-86
2023/02/23 08:35:12;;;;;;;;;;;;;;;21.33;24.18;98169.69;5055232;28;19976;-86
2023/02/23 08:37:38;;;;;;;;;;;;;;;21.19;24.42;98169.81;5048845;28;19976;-86
2023/02/23 08:40:04;;;;;;;;;;;;;;;22.62;23.21;98163.78;5036184;28;19999;-86
2023/02/23 08:42:30;;;;;;;;;;;;;;;23.42;22.32;98162.91;5036236;28;19917;-86
2023/02/23 08:44:57;;;;;;;;;;;;;;;23.38;22.08;98156.59;5035894;28;19924;-86
2023/02/23 08:47:24;;;;;;;;;;;;;;;23.52;21.94;98155.53;5036115;28;19962;-86
2023/02/23 08:49:53;;;;;;;;;;;;;;;23.49;20.96;98164.78;5045274;28;19928;-86
2023/02/23 08:52:19;;;;;;;;;;;;;;;21.96;23.67;98157.84;5054739;28;19917;-86
2023/02/23 08:54:45;;;;;;;;;;;;;;;22.24;23.11;98155.91;5048253;28;19917;-86
2023/02/23 08:57:11;;;;;;;;;;;;;;;23.47;21.94;98162.41;5055848;28;19923;-86
2023/02/23 08:59:38;;;;;;;;;;;;;;;22.24;23.85;98161.50;5055588;28;19917;-86
2023/02/23 09:02:06;;;;;;;;;;;;;;;21.38;24.42;98165.66;5054360;28;20344;-86
2023/02/23 09:04:34;;;;;;;;;;;;;;;21.85;24.22;98162.78;5055769;28;19924;-86
2023/02/23 09:07:00;;;;;;;;;;;;;;;20.42;26.54;98157.97;5054963;28;19944;-86
2023/02/23 09:09:26;;;;;;;;;;;;;;;21.61;25.13;98160.22;5054438;28;19925;-86
2023/02/23 09:11:52;;;;;;;;;;;;;;;22.62;24.32;98155.38;5054270;28;19920;-86
2023/02/23 09:14:18;;;;;;;;;;;;;;;22.51;23.06;98154.72;5052575;28;19927;-86
2023/02/23 09:16:45;;;;;;;;;;;;;;;22.02;24.05;98156.19;5054901;28;19920;-86
2023/02/23 09:19:12;;;;;;;;;;;;;;;21.98;24.97;98161.00;5040602;28;19960;-86
2023/02/23 09:21:38;;;;;;;;;;;;;;;22.96;23.28;98160.88;5035430;28;19939;-86
2023/02/23 09:24:05;;;;;;;;;;;;;;;22.24;24.66;98161.50;5035412;28;19917;-86
2023/02/23 09:26:32;;;;;;;;;;;;;;;22.19;24.52;98153.56;5035261;28;19924;-86
2023/02/23 09:28:59;;;;;;;;;;;;;;;19.87;27.72;98159.81;5042973;28;19920;-86
2023/02/23 09:31:26;;;;;;;;;;;;;;;18.43;28.93;98164.28;5049510;28;19927;-86
2023/02/23 09:33:52;;;;;;;;;;;;;;;19.51;28.21;98150.00;5055206;28;20051;-86
2023/02/23 09:36:20;;;;;;;;;;;;;;;19.04;29.00;98165.91;5054942;28;20058;-86
2023/02/23 09:38:48;;;;;;;;;;;;;;;19.44;28.75;98163.94;5054985;28;19968;-86
2023/02/23 09:41:33;;;;;;;;;;;;;;;22.43;25.23;98147.63;5055060;28;19921;-86
2023/02/23 09:44:17;;;;;;;;;;;;;;;21.87;24.88;98146.38;5051942;28;19956;-86
2023/02/23 09:46:43;;;;;;;;;;;;;;;21.29;25.95;98164.13;5038470;28;20337;-86
2023/02/23 09:49:12;;;;;;;;;;;;;;;22.89;24.76;98152.59;5047538;28;19943;-86
2023/02/23 09:51:41;;;;;;;;;;;;;;;22.51;24.59;98151.13;5055027;28;19917;-86
2023/02/23 09:54:10;;;;;;;;;;;;;;;23.83;22.99;98154.91;5054718;28;19919;-86
2023/02/23 09:56:37;;;;;;;;;;;;;;;21.93;25.16;98143.91;5054288;28;19940;-86
2023/02/23 09:59:07;;;;;;;;;;;;;;;22.19;24.99;98145.19;5046329;28;20425;-86
2023/02/23 10:01:44;;;;;;;;;;;;;;;22.36;24.20;98144.94;5034422;28;19921;-86
2023/02/23 10:04:22;;;;;;;;;;;;;;;21.00;26.58;98153.59;5052508;28;20374;-86
2023/02/23 10:06:55;;;;;;;;;;;;;;;21.78;26.19;98151.66;5046668;28;19921;-86
2023/02/23 10:09:27;;;;;;;;;;;;;;;19.91;29.30;98149.44;5043697;28;19924;-86
2023/02/23 10:11:55;;;;;;;;;;;;;;;18.87;30.96;98152.03;5053979;28;19917;-86
2023/02/23 10:14:31;;;;;;;;;;;;;;;18.85;29.94;98148.84;5054625;28;19920;-86
2023/02/23 10:17:20;;;;;;;;;;;;;;;19.83;29.52;98145.91;5033968;28;19924;-86
2023/02/23 10:19:53;;;;;;;;;;;;;;;19.49;30.15;98139.25;5033414;28;20263;-86
2023/02/23 10:22:20;;;;;;;;;;;;;;;20.61;28.52;98139.94;5044235;28;20398;-87
2023/02/23 10:24:56;;;;;;;;;;;;;;;20.58;28.64;98138.75;5054115;28;19917;-86
2023/02/23 10:27:24;;;;;;;;;;;;;;;21.02;27.25;98134.44;5053294;28;19920;-86
2023/02/23 10:29:52;;;;;;;;;;;;;;;20.40;29.39;98128.91;5053966;28;19917;-86
2023/02/23 10:32:26;;;;;;;;;;;;;;;19.31;30.97;98135.69;5054055;28;19916;-86
2023/02/23 10:34:53;;;;;;;;;;;;;;;19.88;29.78;98136.34;5053901;28;19924;-86
2023/02/23 10:37:19;;;;;;;;;;;;;;;19.49;31.69;98128.13;5052555;28;19920;-86
2023/02/23 10:39:48;;;;;;;;;;;;;;;19.01;31.40;98135.31;5051852;28;19932;-86
2023/02/23 10:42:19;;;;;;;;;;;;;;;22.11;27.42;98118.50;5034179;28;19918;-86
2023/02/23 10:44:45;;;;;;;;;;;;;;;22.95;25.59;98111.66;5033984;28;19971;-86
2023/02/23 10:47:16;;;;;;;;;;;;;;;25.21;23.66;98113.31;5033892;28;19917;-86
2023/02/23 10:49:49;;;;;;;;;;;;;;;26.20;21.91;98104.16;5051260;28;19921;-87
2023/02/23 10:52:27;;;;;;;;;;;;;;;26.60;21.67;98102.50;5054215;28;19939;-87
2023/02/23 10:54:53;;;;;;;;;;;;;;;26.94;21.47;98096.19;5035215;28;19925;-87
2023/02/23 10:57:28;;;;;;;;;;;;;;;26.55;21.12;98097.44;5033746;28;19917;-87
2023/02/23 11:00:06;;;;;;;;;;;;;;;26.62;21.73;98098.00;5033610;28;19917;-87
2023/02/23 11:02:32;;;;;;;;;;;;;;;25.56;22.91;98094.72;5033543;28;19913;-86
2023/02/23 11:04:59;;;;;;;;;;;;;;;26.16;21.76;98086.59;5033741;28;19917;-87
2023/02/23 11:07:30;;;;;;;;;;;;;;;26.21;21.94;98083.22;5037670;28;19927;-86
2023/02/23 11:09:57;;;;;;;;;;;;;;;26.13;21.09;98091.09;5051625;28;19928;-87
2023/02/23 11:12:24;;;;;;;;;;;;;;;26.50;22.03;98084.72;5047755;28;19916;-87
2023/02/23 11:14:55;;;;;;;;;;;;;;;26.87;21.44;98083.13;5053570;28;20011;-87
2023/02/23 11:17:31;;;;;;;;;;;;;;;26.91;21.73;98083.03;5047687;28;20007;-87
2023/02/23 11:20:04;;;;;;;;;;;;;;;25.98;22.63;98073.00;5053466;28;19970;-87
2023/02/23 11:22:31;;;;;;;;;;;;;;;25.55;21.96;98081.13;5052540;28;20393;-88
2023/02/23 11:24:58;;;;;;;;;;;;;;;23.99;24.16;98078.47;5053042;28;19924;-87
2023/02/23 11:27:26;;;;;;;;;;;;;;;26.26;21.88;98074.22;5052478;28;19913;-88
2023/02/23 11:29:54;;;;;;;;;;;;;;;26.51;22.07;98069.38;5053154;28;20337;-87
2023/02/23 11:32:25;;;;;;;;;;;;;;;26.76;21.37;98062.19;5057348;28;19924;-87
2023/02/23 11:35:20;;;;;;;;;;;;;;;27.18;22.44;98055.91;5057394;28;19913;-87
2023/02/23 11:37:47;;;;;;;;;;;;;;;26.94;21.72;98056.75;5054066;28;19963;-87
2023/02/23 11:40:21;;;;;;;;;;;;;;;27.03;20.73;98045.56;5048239;28;20290;-86
2023/02/23 11:42:55;;;;;;;;;;;;;;;26.14;21.83;98055.31;5035280;28;19951;-86
2023/02/23 11:45:22;;;;;;;;;;;;;;;26.29;22.05;98054.41;5038352;28;19917;-87
2023/02/23 11:47:49;;;;;;;;;;;;;;;26.65;21.51;98049.19;5036270;28;19913;-87
2023/02/23 11:50:21;;;;;;;;;;;;;;;27.43;21.92;98043.75;5037304;28;19917;-87
2023/02/23 11:52:49;;;;;;;;;;;;;;;26.37;23.04;98043.72;5037269;28;19913;-87
2023/02/23 11:55:17;;;;;;;;;;;;;;;26.99;22.54;98045.69;5056777;28;19940;-86
2023/02/23 11:57:43;;;;;;;;;;;;;;;27.26;20.98;98039.50;5054761;28;19931;-87
2023/02/23 12:00:20;;;;;;;;;;;;;;;25.94;23.29;98042.19;5054344;28;19970;-86
2023/02/23 12:02:59;;;;;;;;;;;;;;;27.06;21.06;98037.00;5053458;28;20007;-87
2023/02/23 12:05:29;;;;;;;;;;;;;;;27.26;21.79;98040.28;5056988;28;20289;-87
2023/02/23 12:08:13;;;;;;;;;;;;;;;27.64;21.04;98037.34;5055073;28;19983;-86
2023/02/23 12:10:46;;;;;;;;;;;;;;;28.22;21.24;98022.66;5048461;28;19917;-86
2023/02/23 12:13:31;;;;;;;;;;;;;;;28.35;21.26;98035.44;5036688;28;19983;-86
2023/02/23 12:16:07;;;;;;;;;;;;;;;26.63;22.66;98034.78;5035449;28;20362;-86
2023/02/23 12:18:36;;;;;;;;;;;;;;;26.24;22.88;98026.03;5043543;28;19924;-87
2023/02/23 12:21:09;;;;;;;;;;;;;;;27.47;21.95;98033.13;5056471;28;19921;-87
2023/02/23 12:23:39;;;;;;;;;;;;;;;27.30;22.64;98028.91;5047511;28;19927;-87
2023/02/23 12:26:17;;;;;;;;;;;;;;;26.78;22.08;98025.91;5052456;28;20324;-87
2023/02/23 12:29:03;;;;;;;;;;;;;;;27.39;22.61;98020.56;5056546;28;19913;-86
2023/02/23 12:31:32;;;;;;;;;;;;;;;27.15;22.46;98014.53;5036075;28;19917;-87
2023/02/23 12:34:02;;;;;;;;;;;;;;;26.74;22.90;98015.53;5049419;28;19923;-87
2023/02/23 12:36:38;;;;;;;;;;;;;;;27.13;22.19;98017.00;5041769;28;19921;-86
2023/02/23 12:39:23;;;;;;;;;;;;;;;25.20;24.11;98030.25;5039305;28;20393;-87
2023/02/23 12:41:53;;;;;;;;;;;;;;;26.43;22.82;98010.94;5055311;28;19924;-87
2023/02/23 12:44:32;;;;;;;;;;;;;;;27.33;22.63;98008.22;5056621;28;19924;-87
2023/02/23 12:47:03;;;;;;;;;;;;;;;26.85;22.89;98005.94;5056453;28;19956;-87
2023/02/23 12:49:33;;;;;;;;;;;;;;;27.45;22.56;98007.44;5056906;28;19971;-86
2023/02/23 12:52:07;;;;;;;;;;;;;;;26.19;24.58;97998.44;5053536;28;20259;-86
2023/02/23 12:54:34;;;;;;;;;;;;;;;26.92;22.61;98000.84;5044406;28;20297;-87
2023/02/23 12:57:02;;;;;;;;;;;;;;;27.27;22.00;97996.78;5051931;28;19928;-86
2023/02/23 12:59:28;;;;;;;;;;;;;;;27.63;22.22;97990.66;5046786;28;20356;-87
2023/02/23 13:01:59;;;;;;;;;;;;;;;27.50;22.41;97975.03;5035681;28;19925;-87
2023/02/23 13:04:33;;;;;;;;;;;;;;;27.97;22.47;97979.22;5035770;28;19924;-86
2023/02/23 13:07:09;;;;;;;;;;;;;;;27.39;22.09;97978.25;5042366;28;20290;-86
2023/02/23 13:09:35;;;;;;;;;;;;;;;26.91;24.96;97970.31;5051790;28;19931;-86
2023/02/23 13:12:19;;;;;;;;;;;;;;;25.89;24.60;97971.63;5048477;28;19924;-86
2023/02/23 13:14:45;;;;;;;;;;;;;;;24.64;25.79;97972.72;5051962;28;20298;-86
2023/02/23 13:17:32;;;;;;;;;;;;;;;24.34;26.08;97976.69;5055275;28;20366;-86
2023/02/23 13:20:01;;;;;;;;;;;;;;;24.04;26.68;97974.16;5055141;28;20377;-86
2023/02/23 13:22:39;;;;;;;;;;;;;;;26.05;24.10;97963.84;5055429;28;19917;-86
2023/02/23 13:25:35;;;;;;;;;;;;;;;26.32;24.81;97965.47;5053946;28;19923;-86
2023/02/23 13:28:02;;;;;;;;;;;;;;;27.16;22.95;97953.31;5031572;28;19944;-86
2023/02/23 13:30:31;;;;;;;;;;;;;;;27.69;21.99;97957.75;5035535;28;19967;-86
2023/02/23 13:33:01;;;;;;;;;;;;;;;26.77;23.97;97962.38;5035325;28;19987;-86
2023/02/23 13:35:30;;;;;;;;;;;;;;;26.51;23.62;97955.97;5036828;28;19994;-86
2023/02/23 13:37:56;;;;;;;;;;;;;;;27.38;22.56;97949.25;5052225;28;19924;-86
2023/02/23 13:40:22;;;;;;;;;;;;;;;27.67;21.65;97945.38;5052944;28;20274;-86
2023/02/23 13:43:01;;;;;;;;;;;;;;;27.55;24.04;97938.56;5052387;28;20015;-87
2023/02/23 13:45:34;;;;;;;;;;;;;;;28.02;22.63;97933.50;5042351;28;20125;-86
2023/02/23 13:48:03;;;;;;;;;;;;;;;28.04;21.68;97933.03;5054912;28;19913;-87
2023/02/23 13:50:32;;;;;;;;;;;;;;;28.45;21.72;97932.50;5052129;28;20389;-86
2023/02/23 13:53:04;;;;;;;;;;;;;;;28.05;22.63;97931.78;5033590;28;19999;-86
2023/02/23 13:55:36;;;;;;;;;;;;;;;27.79;21.95;97933.22;5046301;28;19928;-86
2023/02/23 13:58:04;;;;;;;;;;;;;;;28.03;22.19;97929.41;5054724;28;19962;-86
2023/02/23 14:00:30;;;;;;;;;;;;;;;27.71;23.09;97929.88;5035261;28;20008;-86
2023/02/23 14:03:00;;;;;;;;;;;;;;;28.29;21.92;97929.19;5033191;28;20352;-86
2023/02/23 14:05:30;;;;;;;;;;;;;;;28.04;22.90;97921.75;5038765;28;19917;-87
2023/02/23 14:08:01;;;;;;;;;;;;;;;27.96;23.15;97920.41;5041778;28;20455;-86
2023/02/23 14:10:28;;;;;;;;;;;;;;;27.95;22.93;97916.03;5045300;28;19983;-86
2023/02/23 14:13:23;;;;;;;;;;;;;;;26.77;23.35;97914.47;5052902;28;20366;-86
2023/02/23 14:16:06;;;;;;;;;;;;;;;27.73;22.62;97918.13;5054606;28;19917;-86
2023/02/23 14:18:33;;;;;;;;;;;;;;;27.90;23.14;97917.44;5039403;28;19963;-86
2023/02/23 14:21:14;;;;;;;;;;;;;;;27.46;22.80;97917.97;5051996;28;19921;-86